Airport ID:KTME
Update Time (UTC):25/05/2018 16:09
Wind Speed (Knots):3
Wind Direction (Magnetic):220
Temperature (°C):30.3
Dew Point (°C):22.2
Humidity (%):62.7
Altimeter (inHg):30
Density Altitude (Feet):02200
Visibility (Miles):10
Clouds (Hundreds of feet):\\\\
Present Weather:
METAR:METAR KTME 251605Z AUTO VRB03KT 10SM 30/22 A3000 RMK AO2

The data displayed is for advisory purposes only and is not to be used for flight planning or operations.

This page is not automatically refreshed. Reload the page to see current data.